< < Back
Terminal Aerodrome Forecast


Current Version              Previous Versions:   1  2  3  4  5  6  7  8  9  

Terminal Aerodrome Forecast

631
FTUS44 KBMX 241120
TAFMGM
TAF
KMGM 241120Z 2412/2512 02003KT P6SM BKN110
     FM241500 09006KT P6SM BKN100
     FM250000 12004KT P6SM SHRA BKN050 OVC100
     FM250900 14009KT P6SM TSRA SCT007CB BKN050=

Latest METAR

770
SAUS80 KWBC 250600 RRB
MTRMGM
METAR KMGM 250553Z AUTO 10004KT 10SM CLR 18/14 A2986 RMK AO2 SLP110
T01830144 10233 20183 402670128 58016


USA.gov is the U.S. government's official web portal to all federal, state and local government web resources and services.